Time;durP1;ratioP1;P1;durP2;ratioP2;P2;SDS_P1;SDS_P2;PMS_P1;PMS_P2;Temp;Humidity;BMP_temperature;BMP_pressure;BME280_temperature;BME280_humidity;BME280_pressure;Samples;Min_cycle;Max_cycle;Signal;HPM_P1;HPM_P2
2023/12/24 00:01:43;;;;;;;2.90;2.30;;;;;;;6.03;100.00;97754.41;5012718;28;20033;-80
2023/12/24 00:04:09;;;;;;;3.97;2.17;;;;;;;6.09;100.00;97767.72;5012301;28;20041;-79
2023/12/24 00:06:34;;;;;;;2.65;2.33;;;;;;;6.10;100.00;97783.34;5014385;28;20399;-80
2023/12/24 00:08:59;;;;;;;6.03;2.25;;;;;;;6.08;100.00;97772.19;5010953;28;20041;-80
2023/12/24 00:11:25;;;;;;;3.65;2.58;;;;;;;6.09;100.00;97776.47;5010918;28;20042;-80
2023/12/24 00:13:50;;;;;;;2.33;2.17;;;;;;;6.07;100.00;97770.63;5011899;28;20810;-79
2023/12/24 00:16:16;;;;;;;6.53;3.25;;;;;;;6.06;100.00;97758.41;4994526;28;20029;-78
2023/12/24 00:18:41;;;;;;;4.82;3.20;;;;;;;6.05;100.00;97754.94;5011923;28;20105;-79
2023/12/24 00:21:06;;;;;;;3.50;2.80;;;;;;;6.03;100.00;97761.53;4993928;28;20069;-78
2023/12/24 00:23:32;;;;;;;5.07;2.72;;;;;;;6.09;100.00;97755.28;5014674;28;20442;-79
2023/12/24 00:25:57;;;;;;;5.30;3.17;;;;;;;6.07;100.00;97764.50;5014830;28;20044;-79
2023/12/24 00:28:22;;;;;;;10.85;3.85;;;;;;;6.05;100.00;97754.94;5009299;28;20421;-78
2023/12/24 00:30:48;;;;;;;5.05;3.17;;;;;;;6.09;100.00;97767.72;5013371;28;20069;-79
2023/12/24 00:33:13;;;;;;;4.50;3.30;;;;;;;6.09;100.00;97771.16;5014030;28;20037;-78
2023/12/24 00:35:38;;;;;;;2.85;2.58;;;;;;;6.08;100.00;97777.50;4997184;28;20030;-79
2023/12/24 00:38:04;;;;;;;3.83;3.35;;;;;;;6.15;100.00;97780.78;5013622;28;20030;-78
2023/12/24 00:40:30;;;;;;;6.72;3.42;;;;;;;6.15;100.00;97777.31;5014510;28;20065;-79
2023/12/24 00:42:56;;;;;;;6.38;3.88;;;;;;;6.16;100.00;97785.00;5012235;28;20124;-78
2023/12/24 00:45:21;;;;;;;3.20;1.98;;;;;;;6.10;100.00;97778.06;5014009;28;20533;-78
2023/12/24 00:47:47;;;;;;;8.20;3.08;;;;;;;6.11;100.00;97774.38;5012078;28;20029;-78
2023/12/24 00:50:12;;;;;;;7.05;4.15;;;;;;;6.13;100.00;97768.81;5012580;28;20055;-78
2023/12/24 00:52:38;;;;;;;8.40;4.28;;;;;;;6.02;100.00;97763.41;5012590;28;20049;-79
2023/12/24 00:55:05;;;;;;;5.68;4.22;;;;;;;6.09;100.00;97780.97;5011852;28;20026;-79
2023/12/24 00:57:30;;;;;;;9.82;5.18;;;;;;;6.04;100.00;97763.16;5012181;28;20033;-79
2023/12/24 00:59:56;;;;;;;6.78;4.25;;;;;;;6.07;100.00;97764.50;5011522;28;20030;-78
2023/12/24 01:02:21;;;;;;;6.32;4.43;;;;;;;6.12;100.00;97767.19;4997789;28;20446;-78
2023/12/24 01:04:46;;;;;;;7.05;5.22;;;;;;;6.15;100.00;97764.88;5005051;28;20021;-78
2023/12/24 01:07:12;;;;;;;8.35;4.13;;;;;;;6.13;100.00;97768.81;5007488;28;20084;-78
2023/12/24 01:09:38;;;;;;;6.07;3.20;;;;;;;6.15;100.00;97767.53;5005881;28;20160;-78
2023/12/24 01:12:04;;;;;;;6.80;4.15;;;;;;;6.15;100.00;97775.47;5008062;28;20033;-78
2023/12/24 01:14:30;;;;;;;8.95;4.63;;;;;;;6.09;100.00;97765.88;5003069;28;20072;-79
2023/12/24 01:16:55;;;;;;;7.15;4.00;;;;;;;6.14;100.00;97775.72;4988064;28;20030;-79
2023/12/24 01:19:22;;;;;;;9.32;4.43;;;;;;;6.16;100.00;97782.34;5009213;28;20096;-78
2023/12/24 01:21:48;;;;;;;7.57;4.32;;;;;;;6.10;100.00;97778.06;5006826;28;20380;-78
2023/12/24 01:24:14;;;;;;;9.82;4.38;;;;;;;6.19;100.00;97775.78;5012836;28;20038;-78
2023/12/24 01:26:39;;;;;;;6.63;5.30;;;;;;;6.21;100.00;97782.44;5003827;28;20037;-78
2023/12/24 01:29:05;;;;;;;12.93;4.47;;;;;;;6.19;100.00;97787.19;5002893;28;20054;-79
2023/12/24 01:31:30;;;;;;;11.88;4.78;;;;;;;6.15;100.00;97793.22;5005256;28;20041;-79
2023/12/24 01:33:56;;;;;;;5.45;4.05;;;;;;;6.18;100.00;97793.50;5001094;28;20030;-78
2023/12/24 01:36:21;;;;;;;5.40;4.30;;;;;;;6.20;100.00;97794.09;5008378;28;21554;-79
2023/12/24 01:38:48;;;;;;;4.28;3.83;;;;;;;6.18;100.00;97787.44;5007126;28;20529;-78
2023/12/24 01:41:13;;;;;;;7.82;4.45;;;;;;;6.19;100.00;97791.66;5009305;28;20041;-78
2023/12/24 01:43:43;;;;;;;11.68;4.53;;;;;;;6.22;100.00;97799.94;5007125;28;20038;-79
2023/12/24 01:46:11;;;;;;;6.10;4.38;;;;;;;6.28;100.00;97808.75;5006223;28;20578;-79
2023/12/24 01:48:37;;;;;;;9.13;4.45;;;;;;;6.25;100.00;97815.34;5009112;28;20034;-79
2023/12/24 01:51:02;;;;;;;4.05;3.63;;;;;;;6.26;100.00;97811.66;5005398;28;20124;-79
2023/12/24 01:53:30;;;;;;;7.00;3.92;;;;;;;6.23;100.00;97811.31;5007720;28;20091;-78
2023/12/24 01:55:55;;;;;;;6.93;3.65;;;;;;;6.30;100.00;97819.91;5005206;28;20026;-78
2023/12/24 01:58:21;;;;;;;5.25;3.92;;;;;;;6.30;100.00;97820.69;5009792;28;20040;-79
2023/12/24 02:00:49;;;;;;;9.60;4.18;;;;;;;6.21;100.00;97816.06;5031051;22;20575;-84
2023/12/24 02:03:16;;;;;;;4.90;3.60;;;;;;;6.26;100.00;97811.66;5018764;28;20034;-83
2023/12/24 02:05:43;;;;;;;4.32;3.90;;;;;;;6.25;100.00;97809.22;5014208;28;20037;-83
2023/12/24 02:08:14;;;;;;;11.20;4.03;;;;;;;6.16;100.00;97795.59;5019209;28;20049;-83
2023/12/24 02:10:40;;;;;;;7.47;4.10;;;;;;;6.22;100.00;97788.53;5018348;28;20036;-83
2023/12/24 02:13:05;;;;;;;7.07;4.00;;;;;;;6.34;100.00;97797.16;5016272;28;20033;-83
2023/12/24 02:15:31;;;;;;;10.00;4.15;;;;;;;6.34;100.00;97794.50;5016378;28;21156;-84
2023/12/24 02:17:57;;;;;;;10.45;4.65;;;;;;;6.27;100.00;97789.38;5017062;28;20120;-82
2023/12/24 02:20:26;;;;;;;9.68;4.38;;;;;;;6.31;100.00;97792.38;5020558;28;20031;-82
2023/12/24 02:22:52;;;;;;;8.93;3.58;;;;;;;6.35;100.00;97798.78;5021776;28;20022;-84
2023/12/24 02:25:18;;;;;;;4.35;3.55;;;;;;;6.30;100.00;97802.16;5009298;28;20079;-84
2023/12/24 02:27:54;;;;;;;4.25;3.42;;;;;;;6.22;100.00;97793.84;5012665;28;22211;-84
2023/12/24 02:30:23;;;;;;;5.15;4.20;;;;;;;6.13;100.00;97774.13;5012254;28;20393;-85
2023/12/24 02:32:55;;;;;;;7.80;4.30;;;;;;;6.25;100.00;97799.44;5012662;28;20030;-85
2023/12/24 02:35:21;;;;;;;7.82;4.47;;;;;;;6.29;100.00;97805.06;5014215;28;20032;-82
2023/12/24 02:37:47;;;;;;;6.80;4.45;;;;;;;6.20;100.00;97783.50;5009956;28;20034;-82
2023/12/24 02:40:12;;;;;;;12.98;4.05;;;;;;;6.26;100.00;97777.19;5014550;28;20026;-82
2023/12/24 02:42:38;;;;;;;6.32;5.15;;;;;;;6.22;100.00;97785.88;5012186;28;20026;-81
2023/12/24 02:45:04;;;;;;;7.82;4.22;;;;;;;6.28;100.00;97777.75;5015568;28;20572;-82
2023/12/24 02:47:29;;;;;;;5.97;4.65;;;;;;;6.32;100.00;97781.50;5011481;28;20042;-81
2023/12/24 02:49:54;;;;;;;8.10;5.70;;;;;;;6.21;100.00;97769.19;5014076;28;20030;-82
2023/12/24 02:52:20;;;;;;;8.27;4.82;;;;;;;6.25;100.00;97770.28;5012155;28;20096;-82
2023/12/24 02:54:45;;;;;;;8.25;4.97;;;;;;;6.28;100.00;97771.66;5014660;28;20482;-82
2023/12/24 02:57:10;;;;;;;6.65;5.20;;;;;;;6.25;100.00;97767.63;5015307;28;20029;-82
2023/12/24 02:59:36;;;;;;;11.35;5.70;;;;;;;6.21;100.00;97766.53;5012248;28;20391;-81
2023/12/24 03:02:01;;;;;;;8.65;5.70;;;;;;;6.27;100.00;97764.75;5011679;28;20402;-84
2023/12/24 03:04:27;;;;;;;8.15;6.38;;;;;;;6.27;100.00;97762.13;4998309;28;20034;-84
2023/12/24 03:06:52;;;;;;;11.32;6.85;;;;;;;6.24;100.00;97749.34;5015729;28;20069;-84
2023/12/24 03:09:17;;;;;;;8.88;6.07;;;;;;;6.20;100.00;97750.91;5016128;28;20034;-84
2023/12/24 03:11:43;;;;;;;8.15;5.72;;;;;;;6.22;100.00;97735.56;5012452;28;20045;-84
2023/12/24 03:14:08;;;;;;;11.68;6.60;;;;;;;6.26;100.00;97745.41;5016939;28;20026;-84
2023/12/24 03:16:34;;;;;;;6.97;5.93;;;;;;;6.22;100.00;97732.91;5011577;28;20035;-84
2023/12/24 03:18:59;;;;;;;8.05;5.80;;;;;;;6.17;100.00;97728.34;5015264;28;20026;-84
2023/12/24 03:21:25;;;;;;;13.38;6.32;;;;;;;6.27;100.00;97717.84;4997780;28;20030;-84
2023/12/24 03:23:50;;;;;;;7.38;6.25;;;;;;;6.28;100.00;97708.06;5019272;28;20038;-84
2023/12/24 03:26:20;;;;;;;10.55;6.63;;;;;;;6.33;100.00;97705.47;5020654;28;20036;-84
2023/12/24 03:28:47;;;;;;;7.38;6.10;;;;;;;6.30;100.00;97701.47;5018256;28;20030;-82
2023/12/24 03:31:12;;;;;;;7.88;6.22;;;;;;;6.24;100.00;97693.72;5025620;28;20076;-82
2023/12/24 03:33:37;;;;;;;9.25;6.18;;;;;;;6.33;100.00;97702.81;5022563;28;20041;-83
2023/12/24 03:36:03;;;;;;;7.25;5.57;;;;;;;6.31;100.00;97696.97;5024952;28;20034;-81
2023/12/24 03:38:28;;;;;;;6.03;5.43;;;;;;;6.30;100.00;97700.66;5026288;28;20076;-82
2023/12/24 03:40:54;;;;;;;9.43;5.88;;;;;;;6.32;100.00;97694.06;5022870;28;20065;-83
2023/12/24 03:43:19;;;;;;;7.15;5.80;;;;;;;6.32;100.00;97695.91;5015674;28;20096;-83
2023/12/24 03:45:44;;;;;;;11.15;5.28;;;;;;;6.22;100.00;97671.97;5012850;28;20089;-82
2023/12/24 03:48:11;;;;;;;7.38;5.38;;;;;;;6.33;100.00;97684.28;5013548;28;20037;-82
2023/12/24 03:50:37;;;;;;;7.13;5.22;;;;;;;6.34;100.00;97672.59;5013897;28;20062;-81
2023/12/24 03:53:02;;;;;;;6.88;5.05;;;;;;;6.27;100.00;97670.16;5008973;28;20034;-82
2023/12/24 03:55:28;;;;;;;8.00;4.88;;;;;;;6.29;100.00;97672.56;5016615;28;20025;-82
2023/12/24 03:57:53;;;;;;;5.72;4.85;;;;;;;6.32;100.00;97672.88;5014879;28;20049;-82
2023/12/24 04:00:19;;;;;;;6.97;4.85;;;;;;;6.31;100.00;97675.78;5012395;28;20462;-81
2023/12/24 04:02:44;;;;;;;11.32;5.07;;;;;;;6.23;100.00;97662.97;5017090;28;20034;-83
2023/12/24 04:05:10;;;;;;;6.72;4.78;;;;;;;6.30;100.00;97663.56;5021404;28;20051;-82
2023/12/24 04:07:35;;;;;;;6.47;4.43;;;;;;;6.32;100.00;97680.81;5015927;28;20029;-82
2023/12/24 04:10:00;;;;;;;8.52;4.85;;;;;;;6.31;100.00;97681.06;5022983;28;20042;-82
2023/12/24 04:12:26;;;;;;;6.28;4.65;;;;;;;6.21;100.00;97667.69;5019259;28;20038;-81
2023/12/24 04:14:51;;;;;;;4.57;4.07;;;;;;;6.28;100.00;97685.03;5023047;28;20029;-84
2023/12/24 04:17:16;;;;;;;8.15;3.95;;;;;;;6.21;100.00;97665.06;5039703;28;20030;-85
2023/12/24 04:19:42;;;;;;;4.28;3.20;;;;;;;6.30;100.00;97676.81;5023238;28;20041;-83
2023/12/24 04:22:07;;;;;;;3.35;3.05;;;;;;;6.31;100.00;97681.84;5025015;28;20034;-85
2023/12/24 04:24:32;;;;;;;5.25;2.97;;;;;;;6.23;100.00;97676.19;5022679;28;20026;-83
2023/12/24 04:26:58;;;;;;;2.63;2.40;;;;;;;6.27;100.00;97682.63;5026990;28;20056;-82
2023/12/24 04:29:23;;;;;;;4.57;2.80;;;;;;;6.36;100.00;97681.91;5022121;28;20038;-85
2023/12/24 04:31:48;;;;;;;2.83;2.58;;;;;;;6.39;100.00;97689.38;5022615;28;20037;-85
2023/12/24 04:34:14;;;;;;;2.10;1.90;;;;;;;6.25;100.00;97672.25;5031523;28;20053;-83
2023/12/24 04:36:39;;;;;;;2.35;2.13;;;;;;;6.30;100.00;97695.34;5022896;28;20063;-83
2023/12/24 04:39:04;;;;;;;2.20;2.10;;;;;;;6.30;100.00;97690.88;5025655;28;20030;-84
2023/12/24 04:41:30;;;;;;;2.13;1.92;;;;;;;6.31;100.00;97687.16;5026852;28;20041;-84
2023/12/24 04:43:55;;;;;;;2.25;1.88;;;;;;;6.28;100.00;97686.88;5026393;28;20025;-84
2023/12/24 04:46:21;;;;;;;1.90;1.77;;;;;;;6.18;100.00;97669.00;5025061;28;20025;-85
2023/12/24 04:48:46;;;;;;;1.80;1.65;;;;;;;6.37;100.00;97696.78;5025352;28;20040;-82
2023/12/24 04:51:12;;;;;;;1.50;1.40;;;;;;;6.34;100.00;97693.81;5022215;28;20033;-81
2023/12/24 04:53:37;;;;;;;2.90;1.35;;;;;;;6.23;100.00;97677.00;5018049;28;20045;-83
2023/12/24 04:56:03;;;;;;;2.83;1.88;;;;;;;6.38;100.00;97684.31;5017694;28;20018;-82
2023/12/24 04:58:28;;;;;;;2.55;1.48;;;;;;;6.37;100.00;97698.63;5020912;28;20040;-83
2023/12/24 05:00:54;;;;;;;1.63;1.25;;;;;;;6.38;100.00;97681.66;5015555;28;20040;-81
2023/12/24 05:03:19;;;;;;;1.45;1.08;;;;;;;6.37;100.00;97695.97;5020544;28;20029;-84
2023/12/24 05:05:45;;;;;;;1.63;1.52;;;;;;;6.40;100.00;97696.25;5021259;28;20037;-84
2023/12/24 05:08:10;;;;;;;0.98;0.98;;;;;;;6.33;100.00;97682.44;5021600;28;20030;-82
2023/12/24 05:10:35;;;;;;;3.47;1.80;;;;;;;6.38;100.00;97686.97;5013765;28;20030;-82
2023/12/24 05:13:00;;;;;;;1.40;1.15;;;;;;;6.38;100.00;97685.13;5017148;28;20526;-83
2023/12/24 05:15:26;;;;;;;1.50;1.15;;;;;;;6.36;100.00;97681.09;5014394;28;20022;-82
2023/12/24 05:17:51;;;;;;;1.20;1.10;;;;;;;6.37;100.00;97680.06;5013197;28;20033;-84
2023/12/24 05:20:17;;;;;;;2.53;1.00;;;;;;;6.32;100.00;97686.13;5019073;28;20411;-83
2023/12/24 05:22:42;;;;;;;1.23;1.20;;;;;;;6.36;100.00;97673.97;5012525;28;20417;-83
2023/12/24 05:25:08;;;;;;;1.10;1.05;;;;;;;6.32;100.00;97664.91;5013897;28;20037;-84
2023/12/24 05:27:33;;;;;;;1.30;1.20;;;;;;;6.36;100.00;97670.50;5015605;28;20064;-83
2023/12/24 05:29:58;;;;;;;0.93;0.93;;;;;;;6.37;100.00;97670.28;5018211;28;20037;-84
2023/12/24 05:32:24;;;;;;;1.65;1.00;;;;;;;6.40;100.00;97674.28;5008736;28;20044;-84
2023/12/24 05:34:49;;;;;;;0.93;0.90;;;;;;;6.36;100.00;97662.56;5018906;28;20124;-82
2023/12/24 05:37:14;;;;;;;1.10;1.02;;;;;;;6.39;100.00;97664.72;5016900;28;20026;-83
2023/12/24 05:39:41;;;;;;;1.33;1.02;;;;;;;6.39;100.00;97667.38;5014624;28;20026;-83
2023/12/24 05:42:07;;;;;;;2.25;1.20;;;;;;;6.42;100.00;97661.59;5016190;28;20033;-81
2023/12/24 05:44:34;;;;;;;1.20;1.10;;;;;;;6.29;100.00;97646.84;5015692;28;21323;-81
2023/12/24 05:46:59;;;;;;;1.02;1.02;;;;;;;6.41;100.00;97652.00;5019186;28;20122;-82
2023/12/24 05:49:24;;;;;;;3.42;0.90;;;;;;;6.38;100.00;97641.91;5015071;28;20030;-82
2023/12/24 05:51:50;;;;;;;2.33;0.80;;;;;;;6.32;100.00;97635.78;5006364;28;20382;-84
2023/12/24 05:54:15;;;;;;;1.92;0.82;;;;;;;6.40;100.00;97645.91;5012910;28;20034;-82
2023/12/24 05:56:40;;;;;;;1.38;1.25;;;;;;;6.40;100.00;97631.88;5019508;28;20068;-82
2023/12/24 05:59:06;;;;;;;0.90;0.90;;;;;;;6.41;100.00;97636.13;5015208;28;20088;-81
2023/12/24 06:01:31;;;;;;;2.13;1.30;;;;;;;6.22;100.00;97618.97;5019203;28;20041;-82
2023/12/24 06:03:56;;;;;;;0.65;0.65;;;;;;;6.39;100.00;97649.63;5020168;28;20030;-82
2023/12/24 06:06:22;;;;;;;0.95;0.90;;;;;;;6.31;100.00;97638.69;5012733;28;20102;-83
2023/12/24 06:08:47;;;;;;;0.60;0.60;;;;;;;6.32;100.00;97641.06;5014104;28;20104;-82
2023/12/24 06:11:16;;;;;;;0.95;0.95;;;;;;;6.36;100.00;97644.81;5014142;28;20470;-82
2023/12/24 06:13:42;;;;;;;0.88;0.88;;;;;;;6.34;100.00;97638.97;5017630;28;20029;-82
2023/12/24 06:16:07;;;;;;;1.50;0.88;;;;;;;6.43;100.00;97647.25;5013749;28;20044;-83
2023/12/24 06:18:33;;;;;;;0.40;0.40;;;;;;;6.37;100.00;97643.78;5011457;28;20030;-83
2023/12/24 06:20:58;;;;;;;0.90;0.60;;;;;;;6.38;100.00;97637.41;5015440;28;20452;-84
2023/12/24 06:23:24;;;;;;;0.80;0.80;;;;;;;6.41;100.00;97647.53;4997172;28;20038;-83
2023/12/24 06:25:49;;;;;;;5.43;0.93;;;;;;;6.38;100.00;97640.06;5015213;28;20498;-83
2023/12/24 06:28:14;;;;;;;1.00;0.63;;;;;;;6.41;100.00;97650.16;5012368;28;20532;-84
2023/12/24 06:30:40;;;;;;;0.65;0.60;;;;;;;6.37;100.00;97641.13;5013746;28;20045;-84
2023/12/24 06:33:05;;;;;;;0.50;0.50;;;;;;;6.39;100.00;97640.88;5018308;28;20026;-84
2023/12/24 06:35:31;;;;;;;0.70;0.70;;;;;;;6.36;100.00;97631.56;5014207;28;20117;-84
2023/12/24 06:37:57;;;;;;;0.50;0.50;;;;;;;6.37;100.00;97629.72;5008994;28;20025;-83
2023/12/24 06:40:22;;;;;;;0.50;0.50;;;;;;;6.31;100.00;97612.97;5013788;28;20026;-84
2023/12/24 06:42:48;;;;;;;0.38;0.38;;;;;;;6.32;100.00;97629.66;5014828;28;20041;-84
2023/12/24 06:45:13;;;;;;;0.75;0.65;;;;;;;6.26;100.00;97617.44;5017525;28;20041;-83
2023/12/24 06:47:39;;;;;;;1.02;0.88;;;;;;;6.26;100.00;97610.28;4997771;28;20034;-84
2023/12/24 06:50:05;;;;;;;0.60;0.60;;;;;;;6.31;100.00;97620.13;4998346;28;20030;-84
2023/12/24 06:52:32;;;;;;;0.50;0.50;;;;;;;6.28;100.00;97610.03;5011810;28;20127;-84
2023/12/24 06:54:58;;;;;;;0.52;0.52;;;;;;;6.36;100.00;97606.91;5021978;28;20018;-81
2023/12/24 06:57:23;;;;;;;2.30;0.70;;;;;;;6.33;100.00;97618.84;5026898;28;20034;-83
2023/12/24 06:59:49;;;;;;;1.58;0.60;;;;;;;6.30;100.00;97605.28;5021131;28;20494;-84
2023/12/24 07:02:15;;;;;;;0.65;0.65;;;;;;;6.41;100.00;97620.22;5015150;28;20036;-83
2023/12/24 07:04:40;;;;;;;2.15;0.68;;;;;;;6.41;100.00;97617.56;5017329;28;20034;-83
2023/12/24 07:07:06;;;;;;;4.80;0.60;;;;;;;6.28;100.00;97602.88;5018376;28;20029;-82
2023/12/24 07:09:32;;;;;;;0.57;0.55;;;;;;;6.38;100.00;97610.09;5015360;28;20033;-83
2023/12/24 07:11:57;;;;;;;2.03;0.93;;;;;;;6.28;100.00;97605.53;5017820;28;20035;-82
2023/12/24 07:14:22;;;;;;;0.40;0.40;;;;;;;6.32;100.00;97629.66;5018082;28;20101;-82
2023/12/24 07:16:48;;;;;;;0.98;0.85;;;;;;;6.41;100.00;97628.97;5015217;28;20124;-83
2023/12/24 07:19:13;;;;;;;1.48;1.27;;;;;;;6.38;100.00;97633.97;5015230;28;20036;-82
2023/12/24 07:21:38;;;;;;;0.55;0.55;;;;;;;6.38;100.00;97631.31;5015658;28;20034;-83
2023/12/24 07:24:05;;;;;;;1.75;0.60;;;;;;;6.40;100.00;97623.94;5020023;28;20041;-82
2023/12/24 07:26:30;;;;;;;0.60;0.60;;;;;;;6.28;100.00;97602.06;5019103;28;20109;-83
2023/12/24 07:28:56;;;;;;;0.82;0.60;;;;;;;6.40;100.00;97615.97;5018605;28;20053;-83
2023/12/24 07:31:21;;;;;;;0.95;0.55;;;;;;;6.38;100.00;97618.06;5018942;28;20049;-84
2023/12/24 07:33:46;;;;;;;0.60;0.60;;;;;;;6.39;100.00;97609.88;5019234;28;20073;-79
2023/12/24 07:36:12;;;;;;;0.57;0.55;;;;;;;6.39;100.00;97615.19;4999232;28;20045;-81
2023/12/24 07:38:37;;;;;;;0.47;0.47;;;;;;;6.32;100.00;97603.97;5019186;28;20041;-81
2023/12/24 07:41:03;;;;;;;0.70;0.70;;;;;;;6.42;100.00;97614.66;5020972;28;20053;-81
2023/12/24 07:43:29;;;;;;;0.47;0.47;;;;;;;6.40;100.00;97614.09;5024359;28;20065;-79
2023/12/24 07:45:54;;;;;;;4.15;3.50;;;;;;;6.29;100.00;97590.44;5022150;28;20042;-80
2023/12/24 07:48:19;;;;;;;2.20;2.03;;;;;;;6.38;100.00;97607.47;5022278;28;20072;-81
2023/12/24 07:50:45;;;;;;;1.23;1.23;;;;;;;6.34;100.00;97587.81;5021798;28;20037;-80
2023/12/24 07:53:10;;;;;;;1.38;1.27;;;;;;;6.30;100.00;97600.78;5028308;28;20038;-81
2023/12/24 07:55:36;;;;;;;2.58;1.40;;;;;;;6.39;100.00;97614.38;5029827;28;20018;-81
2023/12/24 07:58:01;;;;;;;1.42;1.33;;;;;;;6.45;100.00;97605.41;5024940;28;20069;-81
2023/12/24 08:00:27;;;;;;;1.13;1.02;;;;;;;6.42;100.00;97605.94;5019448;28;20033;-81
2023/12/24 08:02:52;;;;;;;1.40;1.30;;;;;;;6.40;100.00;97613.34;5012036;28;20076;-80
2023/12/24 08:05:17;;;;;;;0.80;0.80;;;;;;;6.41;100.00;97607.78;5009469;28;20037;-79
2023/12/24 08:07:43;;;;;;;0.80;0.80;;;;;;;6.36;100.00;97601.59;5007847;28;20056;-81
2023/12/24 08:10:08;;;;;;;1.05;1.05;;;;;;;6.46;100.00;97609.66;5006599;28;20140;-82
2023/12/24 08:12:34;;;;;;;0.70;0.70;;;;;;;6.41;100.00;97599.00;5008998;28;20378;-81
2023/12/24 08:14:59;;;;;;;0.70;0.70;;;;;;;6.46;100.00;97609.66;5000111;28;20026;-80
2023/12/24 08:17:24;;;;;;;0.73;0.73;;;;;;;6.42;100.00;97601.41;5002139;28;20073;-82
2023/12/24 08:19:50;;;;;;;0.88;0.80;;;;;;;6.40;100.00;97592.13;5006583;28;20036;-83
2023/12/24 08:22:15;;;;;;;0.50;0.50;;;;;;;6.42;100.00;97593.44;4989152;28;20098;-82
2023/12/24 08:24:41;;;;;;;1.10;0.80;;;;;;;6.46;100.00;97594.56;5008075;28;20168;-83
2023/12/24 08:27:07;;;;;;;0.40;0.40;;;;;;;6.52;100.00;97595.41;5011229;28;20046;-81
2023/12/24 08:29:32;;;;;;;0.70;0.70;;;;;;;6.45;100.00;97587.66;5007288;28;20765;-83
2023/12/24 08:31:58;;;;;;;2.40;0.30;;;;;;;6.49;100.00;97583.44;5012772;28;20152;-81
2023/12/24 08:34:24;;;;;;;0.43;0.43;;;;;;;6.53;100.00;97592.47;5002227;28;20057;-82
2023/12/24 08:36:49;;;;;;;0.68;0.68;;;;;;;6.59;100.00;97603.94;5004362;28;20033;-80
2023/12/24 08:39:14;;;;;;;0.50;0.50;;;;;;;6.57;100.00;97600.75;5011481;28;20092;-82
2023/12/24 08:41:40;;;;;;;0.30;0.30;;;;;;;6.49;100.00;97582.63;5009203;28;20160;-83
2023/12/24 08:44:05;;;;;;;0.50;0.50;;;;;;;6.59;100.00;97598.66;5012574;28;20790;-83
2023/12/24 08:46:31;;;;;;;0.70;0.60;;;;;;;6.52;100.00;97587.44;5007081;28;20120;-82
2023/12/24 08:48:57;;;;;;;0.63;0.63;;;;;;;6.51;100.00;97588.50;5007803;28;20611;-82
2023/12/24 08:51:23;;;;;;;0.70;0.70;;;;;;;6.64;100.00;97596.03;5007327;28;20061;-81
2023/12/24 08:53:48;;;;;;;0.60;0.60;;;;;;;6.62;100.00;97601.56;5011129;28;20757;-81
2023/12/24 08:56:14;;;;;;;1.58;0.50;;;;;;;6.63;100.00;97591.78;5009489;28;20396;-81
2023/12/24 08:58:39;;;;;;;0.50;0.50;;;;;;;6.64;100.00;97601.34;5002738;28;20510;-83
2023/12/24 09:01:05;;;;;;;0.40;0.40;;;;;;;6.59;100.00;97602.09;5007255;28;20517;-83
2023/12/24 09:03:30;;;;;;;0.68;0.68;;;;;;;6.64;100.00;97601.34;5009069;28;20586;-84
2023/12/24 09:05:55;;;;;;;0.70;0.70;;;;;;;6.65;100.00;97592.31;5006139;28;20489;-80
2023/12/24 09:08:21;;;;;;;0.60;0.60;;;;;;;6.64;100.00;97588.09;5008091;28;20056;-84
2023/12/24 09:10:46;;;;;;;0.70;0.70;;;;;;;6.67;100.00;97585.72;5005279;28;20037;-82
2023/12/24 09:13:12;;;;;;;0.70;0.70;;;;;;;6.63;100.00;97583.81;5008503;28;20088;-82
2023/12/24 09:15:37;;;;;;;0.50;0.50;;;;;;;6.73;100.00;97578.59;5009950;28;20034;-80
2023/12/24 09:18:03;;;;;;;0.80;0.80;;;;;;;6.71;100.00;97578.03;5007032;28;20068;-80
2023/12/24 09:20:28;;;;;;;0.70;0.70;;;;;;;6.74;100.00;97591.59;5006474;28;20030;-80
2023/12/24 09:22:54;;;;;;;0.60;0.60;;;;;;;6.73;100.00;97586.53;5010766;28;20574;-80
2023/12/24 09:25:19;;;;;;;0.77;0.70;;;;;;;6.76;100.00;97589.50;5010674;28;20038;-80
2023/12/24 09:27:45;;;;;;;0.70;0.70;;;;;;;6.78;100.00;97599.84;5011087;28;20057;-80
2023/12/24 09:30:11;;;;;;;1.30;1.20;;;;;;;6.77;100.00;97595.59;5005664;28;20076;-80
2023/12/24 09:32:36;;;;;;;0.68;0.68;;;;;;;6.83;100.00;97597.22;5009965;28;20077;-80
2023/12/24 09:35:02;;;;;;;0.60;0.60;;;;;;;6.87;100.00;97593.00;5003843;28;20046;-80
2023/12/24 09:37:27;;;;;;;1.08;0.70;;;;;;;6.86;100.00;97596.72;5008304;28;20029;-79
2023/12/24 09:39:53;;;;;;;3.20;0.80;;;;;;;6.90;100.00;97597.81;5010999;28;20127;-80
2023/12/24 09:42:18;;;;;;;2.17;0.70;;;;;;;6.89;100.00;97587.44;5012881;28;20033;-79
2023/12/24 09:44:45;;;;;;;0.43;0.43;;;;;;;6.89;100.00;97593.56;5010597;28;20040;-79
2023/12/24 09:47:10;;;;;;;0.70;0.70;;;;;;;6.87;100.00;97595.66;5012602;28;20034;-81
2023/12/24 09:49:35;;;;;;;0.85;0.77;;;;;;;6.85;100.00;97602.28;5009784;28;20475;-81
2023/12/24 09:52:02;;;;;;;0.77;0.63;;;;;;;6.87;100.00;97595.66;5009539;28;20041;-81
2023/12/24 09:54:27;;;;;;;1.05;0.80;;;;;;;6.84;100.00;97585.56;5011600;28;20030;-82
2023/12/24 09:56:52;;;;;;;0.30;0.30;;;;;;;6.86;100.00;97590.63;5018371;28;20108;-80
2023/12/24 09:59:18;;;;;;;0.57;0.57;;;;;;;6.81;100.00;97570.19;5017791;28;20044;-81
2023/12/24 10:01:45;;;;;;;0.55;0.47;;;;;;;6.72;100.00;97567.19;5011773;28;20118;-81
2023/12/24 10:04:11;;;;;;;1.00;0.88;;;;;;;6.87;100.00;97597.50;5013218;28;20018;-80
2023/12/24 10:06:55;;;;;;;0.40;0.40;;;;;;;6.91;100.00;97583.50;5017061;28;20030;-80
2023/12/24 10:09:23;;;;;;;0.30;0.30;;;;;;;6.96;100.00;97596.78;5012213;28;20037;-81
2023/12/24 10:12:18;;;;;;;0.70;0.55;;;;;;;6.96;100.00;97590.69;5015846;28;20025;-81
2023/12/24 10:14:58;;;;;;;0.50;0.50;;;;;;;7.00;100.00;97592.56;5006967;28;20046;-80
2023/12/24 10:17:41;;;;;;;0.43;0.43;;;;;;;7.02;100.00;97590.47;5012818;28;20026;-79
2023/12/24 10:20:08;;;;;;;0.57;0.57;;;;;;;7.04;100.00;97590.19;5008173;28;20034;-79
2023/12/24 10:22:34;;;;;;;0.80;0.75;;;;;;;7.07;100.00;97597.66;5012139;28;20034;-80
2023/12/24 10:25:03;;;;;;;0.70;0.70;;;;;;;7.08;100.00;97592.06;5013298;28;20029;-80
2023/12/24 10:27:29;;;;;;;0.77;0.77;;;;;;;7.01;100.00;97586.19;5017979;28;20125;-79
2023/12/24 10:30:12;;;;;;;0.52;0.52;;;;;;;7.08;100.00;97597.38;5010058;28;20160;-83
2023/12/24 10:32:38;;;;;;;0.98;0.60;;;;;;;7.14;100.00;97583.09;5013433;28;20117;-79
2023/12/24 10:35:04;;;;;;;2.33;0.60;;;;;;;7.10;100.00;97578.56;5010858;28;20101;-80
2023/12/24 10:37:29;;;;;;;0.70;0.65;;;;;;;7.17;100.00;97584.44;5010297;28;20033;-80
2023/12/24 10:40:09;;;;;;;0.60;0.60;;;;;;;7.17;100.00;97581.78;5010090;28;20030;-79
2023/12/24 10:42:36;;;;;;;1.23;0.80;;;;;;;7.16;100.00;97577.53;5010964;28;20100;-79
2023/12/24 10:45:03;;;;;;;0.60;0.60;;;;;;;7.16;100.00;97575.69;5012340;28;20030;-80
2023/12/24 10:47:28;;;;;;;0.80;0.63;;;;;;;7.17;100.00;97576.47;5016378;28;20034;-80
2023/12/24 10:49:54;;;;;;;0.50;0.50;;;;;;;7.18;100.00;97572.78;5014986;28;20053;-80
2023/12/24 10:52:19;;;;;;;0.60;0.60;;;;;;;7.31;100.00;97590.88;5015062;28;20037;-80
2023/12/24 10:54:46;;;;;;;0.60;0.60;;;;;;;7.25;100.00;97582.09;5012242;28;20030;-80
2023/12/24 10:57:12;;;;;;;1.20;0.80;;;;;;;7.30;100.00;97573.34;5014448;28;20032;-80
2023/12/24 10:59:55;;;;;;;1.65;0.88;;;;;;;7.29;100.00;97572.56;5016304;28;20061;-80
2023/12/24 11:02:21;;;;;;;0.40;0.40;;;;;;;7.27;100.00;97558.75;5013046;28;20455;-80
2023/12/24 11:04:48;;;;;;;0.38;0.30;;;;;;;7.38;100.00;97564.91;5015164;28;20116;-80
2023/12/24 11:07:32;;;;;;;1.27;0.60;;;;;;;7.37;100.00;97571.28;5020777;28;20474;-80
2023/12/24 11:09:59;;;;;;;0.60;0.60;;;;;;;7.33;100.00;97563.03;5010806;28;20120;-81
2023/12/24 11:12:35;;;;;;;0.45;0.43;;;;;;;7.41;100.00;97557.22;5014512;28;20494;-79
2023/12/24 11:15:02;;;;;;;0.50;0.50;;;;;;;7.36;100.00;97533.31;5017207;28;20032;-79
2023/12/24 11:17:33;;;;;;;0.45;0.43;;;;;;;7.42;100.00;97539.44;5014731;28;20030;-82
2023/12/24 11:20:17;;;;;;;0.25;0.25;;;;;;;7.50;100.00;97531.78;5010112;28;20030;-81
2023/12/24 11:23:03;;;;;;;0.43;0.40;;;;;;;7.54;100.00;97532.84;5013585;28;20030;-80
2023/12/24 11:25:45;;;;;;;0.70;0.70;;;;;;;7.55;100.00;97545.06;5008798;28;20084;-79
2023/12/24 11:28:35;;;;;;;0.28;0.20;;;;;;;7.55;100.00;97541.63;5009787;28;20132;-79
2023/12/24 11:31:02;;;;;;;1.20;0.50;;;;;;;7.45;100.00;97525.63;5007943;28;21746;-80